createdAt,value
2022-10-31T00:01:32.508Z,10.90
2022-10-31T00:04:02.003Z,9.53
2022-10-31T00:06:29.270Z,10.15
2022-10-31T00:08:59.038Z,9.48
2022-10-31T00:11:26.869Z,11.10
2022-10-31T00:13:54.738Z,10.23
2022-10-31T00:16:24.369Z,9.90
2022-10-31T00:18:57.171Z,9.52
2022-10-31T00:21:25.582Z,10.40
2022-10-31T00:23:52.870Z,10.45
2022-10-31T00:26:20.389Z,9.57
2022-10-31T00:28:47.612Z,9.95
2022-10-31T00:31:15.074Z,10.27
2022-10-31T00:33:42.796Z,10.43
2022-10-31T00:36:16.865Z,10.02
2022-10-31T00:38:47.428Z,9.97
2022-10-31T00:41:16.572Z,9.43
2022-10-31T00:43:44.420Z,9.50
2022-10-31T00:46:12.670Z,9.55
2022-10-31T00:48:39.999Z,10.33
2022-10-31T00:51:07.479Z,9.43
2022-10-31T00:53:35.104Z,9.60
2022-10-31T00:56:02.320Z,9.50
2022-10-31T00:58:29.463Z,9.88
2022-10-31T01:00:56.940Z,9.90
2022-10-31T01:03:26.699Z,9.60
2022-10-31T01:06:01.336Z,10.27
2022-10-31T01:08:29.355Z,10.03
2022-10-31T01:11:07.369Z,9.33
2022-10-31T01:13:36.074Z,10.00
2022-10-31T01:16:05.497Z,9.97
2022-10-31T01:18:32.872Z,10.13
2022-10-31T01:21:09.243Z,10.07
2022-10-31T01:23:36.758Z,10.20
2022-10-31T01:26:15.620Z,9.60
2022-10-31T01:28:51.608Z,9.80
2022-10-31T01:31:20.781Z,9.90
2022-10-31T01:33:48.336Z,9.77
2022-10-31T01:36:29.363Z,9.67
2022-10-31T01:39:02.856Z,9.57
2022-10-31T01:41:32.745Z,9.57
2022-10-31T01:44:02.689Z,9.73
2022-10-31T01:46:40.507Z,9.53
2022-10-31T01:49:18.328Z,9.95
2022-10-31T01:51:57.466Z,9.20
2022-10-31T01:54:33.160Z,9.15
2022-10-31T01:57:01.729Z,10.35
2022-10-31T01:59:37.645Z,9.50
2022-10-31T02:02:04.993Z,9.85
2022-10-31T02:04:32.285Z,9.60
2022-10-31T02:07:06.142Z,9.93
2022-10-31T02:09:34.363Z,9.63
2022-10-31T02:12:02.303Z,9.63
2022-10-31T02:14:34.703Z,9.90
2022-10-31T02:17:04.179Z,9.23
2022-10-31T02:19:56.008Z,9.37
2022-10-31T02:22:31.242Z,9.30
2022-10-31T02:25:22.991Z,9.93
2022-10-31T02:28:35.323Z,9.70
2022-10-31T02:31:17.473Z,9.90
2022-10-31T02:33:54.298Z,9.07
2022-10-31T02:36:26.697Z,9.80
2022-10-31T02:39:11.691Z,10.00
2022-10-31T02:41:58.921Z,9.60
2022-10-31T02:44:45.571Z,9.43
2022-10-31T02:47:18.525Z,9.60
2022-10-31T02:49:55.886Z,10.00
2022-10-31T02:52:26.698Z,8.87
2022-10-31T02:54:54.176Z,10.13
2022-10-31T02:57:28.392Z,10.40
2022-10-31T03:00:07.864Z,9.20
2022-10-31T03:03:02.066Z,9.77
2022-10-31T03:05:29.457Z,9.53
2022-10-31T03:08:17.369Z,10.13
2022-10-31T03:11:04.167Z,9.17
2022-10-31T03:13:34.468Z,10.20
2022-10-31T03:16:30.225Z,9.47
2022-10-31T03:19:06.922Z,9.40
2022-10-31T03:21:40.964Z,9.67
2022-10-31T03:24:14.327Z,9.43
2022-10-31T03:26:49.729Z,10.17
2022-10-31T03:29:19.786Z,9.10
2022-10-31T03:31:52.906Z,9.80
2022-10-31T03:34:21.633Z,10.13
2022-10-31T03:36:54.030Z,9.43
2022-10-31T03:39:23.846Z,9.47
2022-10-31T03:42:24.067Z,9.97
2022-10-31T03:45:17.590Z,9.93
2022-10-31T03:47:45.493Z,9.43
2022-10-31T03:50:15.430Z,9.23
2022-10-31T03:53:02.471Z,9.47
2022-10-31T03:55:43.821Z,9.30
2022-10-31T03:58:40.339Z,9.20
2022-10-31T04:01:13.185Z,9.33
2022-10-31T04:03:40.668Z,9.40
2022-10-31T04:06:11.704Z,8.83
2022-10-31T04:08:46.700Z,9.70
2022-10-31T04:11:16.655Z,9.57
2022-10-31T04:13:47.208Z,9.83
2022-10-31T04:16:17.181Z,8.80
2022-10-31T04:18:45.099Z,8.93
2022-10-31T04:21:12.278Z,8.53
2022-10-31T04:23:39.485Z,9.47
2022-10-31T04:26:06.588Z,9.10
2022-10-31T04:28:34.781Z,8.73
2022-10-31T04:31:01.988Z,9.17
2022-10-31T04:33:29.176Z,9.13
2022-10-31T04:35:56.316Z,9.07
2022-10-31T04:38:23.475Z,8.70
2022-10-31T04:40:50.626Z,8.97
2022-10-31T04:43:17.780Z,9.40
2022-10-31T04:45:44.906Z,8.60
2022-10-31T04:48:11.990Z,9.80
2022-10-31T04:50:39.053Z,8.63
2022-10-31T04:53:06.190Z,9.33
2022-10-31T04:55:36.692Z,8.83
2022-10-31T04:58:06.744Z,9.33
2022-10-31T05:00:33.968Z,9.13
2022-10-31T05:03:01.586Z,10.13
2022-10-31T05:05:31.461Z,9.60
2022-10-31T05:07:58.659Z,9.93
2022-10-31T05:10:28.855Z,10.07
2022-10-31T05:12:58.502Z,10.23
2022-10-31T05:15:33.678Z,10.17
2022-10-31T05:18:02.097Z,9.43
2022-10-31T05:20:31.356Z,9.17
2022-10-31T05:23:00.086Z,9.87
2022-10-31T05:25:28.685Z,9.50
2022-10-31T05:27:57.269Z,9.27
2022-10-31T05:30:29.899Z,9.97
2022-10-31T05:32:57.532Z,10.20
2022-10-31T05:35:33.311Z,10.33
2022-10-31T05:38:00.466Z,9.70
2022-10-31T05:40:28.409Z,9.47
2022-10-31T05:42:57.282Z,9.30
2022-10-31T05:45:24.882Z,9.77
2022-10-31T05:48:02.740Z,9.27
2022-10-31T05:50:32.057Z,9.20
2022-10-31T05:53:04.527Z,9.77
2022-10-31T05:55:34.027Z,10.07
2022-10-31T05:58:01.852Z,10.00
2022-10-31T06:00:32.204Z,9.37
2022-10-31T06:05:34.483Z,9.07
2022-10-31T06:08:02.112Z,9.70
2022-10-31T06:10:29.849Z,9.23
2022-10-31T06:12:59.448Z,9.57
2022-10-31T06:15:26.674Z,9.80
2022-10-31T06:18:04.992Z,9.83
2022-10-31T06:20:33.020Z,9.87
2022-10-31T06:23:01.275Z,9.40
2022-10-31T06:25:28.817Z,9.27
2022-10-31T06:27:56.780Z,9.23
2022-10-31T06:30:26.558Z,10.57
2022-10-31T06:33:02.319Z,9.67
2022-10-31T06:35:29.778Z,9.07
2022-10-31T06:37:57.209Z,10.93
2022-10-31T06:40:24.746Z,10.23
2022-10-31T06:42:59.630Z,10.90
2022-10-31T06:45:26.940Z,10.63
2022-10-31T06:48:15.983Z,10.40
2022-10-31T06:50:44.075Z,10.63
2022-10-31T06:53:11.847Z,10.80
2022-10-31T06:55:41.352Z,11.40
2022-10-31T06:58:11.201Z,9.97
2022-10-31T07:00:38.783Z,10.47
2022-10-31T07:03:12.111Z,10.67
2022-10-31T07:05:39.642Z,10.93
2022-10-31T07:08:09.727Z,11.33
2022-10-31T07:10:40.388Z,12.17
2022-10-31T07:13:14.422Z,11.73
2022-10-31T07:15:43.230Z,12.23
2022-10-31T07:18:12.113Z,11.17
2022-10-31T07:20:39.511Z,10.93
2022-10-31T07:23:07.023Z,10.67
2022-10-31T07:25:34.311Z,10.53
2022-10-31T07:28:04.165Z,10.90
2022-10-31T07:30:33.897Z,10.33
2022-10-31T07:33:01.024Z,10.47
2022-10-31T07:35:29.437Z,10.93
2022-10-31T07:37:56.884Z,10.17
2022-10-31T07:40:25.332Z,10.20
2022-10-31T07:42:53.814Z,10.63
2022-10-31T07:45:22.030Z,10.47
2022-10-31T07:47:53.598Z,10.87
2022-10-31T07:50:22.317Z,10.37
2022-10-31T07:52:58.476Z,11.50
2022-10-31T07:55:31.231Z,11.03
2022-10-31T07:58:00.153Z,10.83
2022-10-31T08:00:30.643Z,10.47
2022-10-31T08:03:18.838Z,10.03
2022-10-31T08:05:46.934Z,9.67
2022-10-31T08:08:15.490Z,10.20
2022-10-31T08:10:43.305Z,11.07
2022-10-31T08:13:12.920Z,11.00
2022-10-31T08:15:42.542Z,11.10
2022-10-31T08:18:16.316Z,10.87
2022-10-31T08:20:44.501Z,10.70
2022-10-31T08:23:15.164Z,11.07
2022-10-31T08:25:44.789Z,9.93
2022-10-31T08:28:12.880Z,10.77
2022-10-31T08:30:41.115Z,10.37
2022-10-31T08:33:18.290Z,11.00
2022-10-31T08:35:46.010Z,10.63
2022-10-31T08:38:14.392Z,11.50
2022-10-31T08:40:43.592Z,10.77
2022-10-31T08:43:14.393Z,10.63
2022-10-31T08:45:42.455Z,9.77
2022-10-31T08:48:12.699Z,9.80
2022-10-31T08:50:40.146Z,10.20
2022-10-31T08:53:11.678Z,10.40
2022-10-31T08:55:42.372Z,10.50
2022-10-31T08:58:15.492Z,10.40
2022-10-31T09:00:43.019Z,9.20
2022-10-31T09:03:15.445Z,9.10
2022-10-31T09:05:43.545Z,10.87
2022-10-31T09:08:17.014Z,9.00
2022-10-31T09:10:45.237Z,9.50
2022-10-31T09:13:18.183Z,9.67
2022-10-31T09:15:48.091Z,10.10
2022-10-31T09:18:20.411Z,8.90
2022-10-31T09:20:48.584Z,9.33
2022-10-31T09:23:24.480Z,8.83
2022-10-31T09:25:54.865Z,10.20
2022-10-31T09:28:23.872Z,9.23
2022-10-31T09:30:55.051Z,10.60
2022-10-31T09:33:22.720Z,10.10
2022-10-31T09:35:52.629Z,10.70
2022-10-31T09:38:21.855Z,10.50
2022-10-31T09:41:07.710Z,9.93
2022-10-31T09:43:51.057Z,10.37
2022-10-31T09:46:30.269Z,10.33
2022-10-31T09:49:18.749Z,10.83
2022-10-31T09:51:53.193Z,10.93
2022-10-31T09:54:28.193Z,10.60
2022-10-31T09:56:58.439Z,11.53
2022-10-31T09:59:37.092Z,10.17
2022-10-31T10:02:14.497Z,10.67
2022-10-31T10:05:00.207Z,11.10
2022-10-31T10:07:33.409Z,10.27
2022-10-31T10:10:19.015Z,11.13
2022-10-31T10:13:12.438Z,11.53
2022-10-31T10:16:07.129Z,9.93
2022-10-31T10:18:52.824Z,10.23
2022-10-31T10:21:38.953Z,11.47
2022-10-31T10:24:29.158Z,10.57
2022-10-31T10:27:27.478Z,11.57
2022-10-31T10:30:05.473Z,10.33
2022-10-31T10:32:49.343Z,11.43
2022-10-31T10:35:22.125Z,11.73
2022-10-31T10:37:53.692Z,11.00
2022-10-31T10:40:28.567Z,11.03
2022-10-31T10:43:40.128Z,11.45
2022-10-31T10:46:44.629Z,10.48
2022-10-31T10:49:20.685Z,10.48
2022-10-31T10:52:41.735Z,10.27
2022-10-31T10:55:12.899Z,9.90
2022-10-31T10:57:58.153Z,10.60
2022-10-31T11:00:27.045Z,10.32
2022-10-31T11:02:54.693Z,10.75
2022-10-31T11:05:25.118Z,10.87
2022-10-31T11:07:55.126Z,9.20
2022-10-31T11:10:22.344Z,9.48
2022-10-31T11:13:24.610Z,8.63
2022-10-31T11:15:57.095Z,8.35
2022-10-31T11:18:29.650Z,7.97
2022-10-31T11:21:03.674Z,8.25
2022-10-31T11:23:31.242Z,7.90
2022-10-31T11:26:06.020Z,8.02
2022-10-31T11:28:36.003Z,7.35
2022-10-31T11:31:16.051Z,7.05
2022-10-31T11:33:48.324Z,8.07
2022-10-31T11:36:17.439Z,8.23
2022-10-31T11:38:45.481Z,7.47
2022-10-31T11:41:16.379Z,7.05
2022-10-31T11:43:59.360Z,7.70
2022-10-31T11:46:40.642Z,7.68
2022-10-31T11:49:18.532Z,7.72
2022-10-31T11:51:51.146Z,7.75
2022-10-31T11:54:32.112Z,8.18
2022-10-31T11:56:59.256Z,7.55
2022-10-31T11:59:29.958Z,7.78
2022-10-31T12:02:01.772Z,7.65
2022-10-31T12:04:52.434Z,7.60
2022-10-31T12:07:19.648Z,8.20
2022-10-31T12:09:46.815Z,8.15
2022-10-31T12:12:41.411Z,7.40
2022-10-31T12:15:17.536Z,8.32
2022-10-31T12:18:08.394Z,8.25
2022-10-31T12:20:53.358Z,7.97
2022-10-31T12:23:29.863Z,7.05
2022-10-31T12:26:14.896Z,7.35
2022-10-31T12:29:20.223Z,7.47
2022-10-31T12:32:04.401Z,7.18
2022-10-31T12:34:31.423Z,6.93
2022-10-31T12:37:07.463Z,6.97
2022-10-31T12:39:48.521Z,7.15
2022-10-31T12:42:25.878Z,6.95
2022-10-31T12:45:16.071Z,7.03
2022-10-31T12:47:55.626Z,6.95
2022-10-31T12:50:22.763Z,7.22
2022-10-31T12:53:21.139Z,7.13
2022-10-31T12:55:54.808Z,6.95
2022-10-31T12:58:28.920Z,7.35
2022-10-31T13:01:21.269Z,6.78
2022-10-31T13:04:32.896Z,6.38
2022-10-31T13:07:04.800Z,5.53
2022-10-31T13:09:38.393Z,6.80
2022-10-31T13:12:11.108Z,5.20
2022-10-31T13:14:43.040Z,5.18
2022-10-31T13:17:25.529Z,5.25
2022-10-31T13:20:06.545Z,5.35
2022-10-31T13:22:36.761Z,5.63
2022-10-31T13:25:20.562Z,5.15
2022-10-31T13:28:01.439Z,5.20
2022-10-31T13:30:37.400Z,5.75
2022-10-31T13:33:19.675Z,5.28
2022-10-31T13:35:55.183Z,5.20
2022-10-31T13:38:51.406Z,5.70
2022-10-31T13:41:36.701Z,5.50
2022-10-31T13:44:24.950Z,5.35
2022-10-31T13:46:54.448Z,5.65
2022-10-31T13:49:30.524Z,6.40
2022-10-31T13:52:14.457Z,5.32
2022-10-31T13:54:49.793Z,5.53
2022-10-31T13:57:39.758Z,6.35
2022-10-31T14:00:22.006Z,6.57
2022-10-31T14:02:55.430Z,6.97
2022-10-31T14:05:35.055Z,7.40
2022-10-31T14:08:07.404Z,7.28
2022-10-31T14:10:40.204Z,6.78
2022-10-31T14:13:15.983Z,7.32
2022-10-31T14:15:54.056Z,7.13
2022-10-31T14:18:34.518Z,6.93
2022-10-31T14:21:01.673Z,6.60
2022-10-31T14:23:34.030Z,7.40
2022-10-31T14:26:32.219Z,7.18
2022-10-31T14:29:01.062Z,7.13
2022-10-31T14:31:40.190Z,7.25
2022-10-31T14:34:32.164Z,7.20
2022-10-31T14:37:05.581Z,7.55
2022-10-31T14:39:54.070Z,7.53
2022-10-31T14:42:41.552Z,7.03
2022-10-31T14:45:20.377Z,8.13
2022-10-31T14:48:25.180Z,7.70
2022-10-31T14:51:01.055Z,7.85
2022-10-31T14:53:36.154Z,8.43
2022-10-31T14:56:06.968Z,8.38
2022-10-31T14:58:48.840Z,8.32
2022-10-31T15:01:30.306Z,8.48
2022-10-31T15:04:23.795Z,9.32
2022-10-31T15:07:25.849Z,9.43
2022-10-31T15:10:01.740Z,9.70
2022-10-31T15:12:38.589Z,9.18
2022-10-31T15:15:14.462Z,9.73
2022-10-31T15:17:50.202Z,9.77
2022-10-31T15:20:30.026Z,9.70
2022-10-31T15:22:58.659Z,9.48
2022-10-31T15:25:31.802Z,9.18
2022-10-31T15:27:59.202Z,9.38
2022-10-31T15:30:29.752Z,9.85
2022-10-31T15:32:59.141Z,9.57
2022-10-31T15:35:31.754Z,9.63
2022-10-31T15:38:00.972Z,9.77
2022-10-31T15:40:29.264Z,9.65
2022-10-31T15:43:04.801Z,10.27
2022-10-31T15:45:32.805Z,9.80
2022-10-31T15:48:05.581Z,9.50
2022-10-31T15:50:36.653Z,9.52
2022-10-31T15:53:05.540Z,9.88
2022-10-31T15:55:46.369Z,9.95
2022-10-31T15:58:15.902Z,9.55
2022-10-31T16:00:43.123Z,10.38
2022-10-31T16:03:16.411Z,9.07
2022-10-31T16:05:52.434Z,9.43
2022-10-31T16:08:31.908Z,9.85
2022-10-31T16:11:08.921Z,9.75
2022-10-31T16:13:42.195Z,9.55
2022-10-31T16:16:34.586Z,9.52
2022-10-31T16:19:04.663Z,8.70
2022-10-31T16:21:37.670Z,8.75
2022-10-31T16:24:20.504Z,8.73
2022-10-31T16:26:55.973Z,8.00
2022-10-31T16:29:28.089Z,8.38
2022-10-31T16:31:57.481Z,7.78
2022-10-31T16:34:26.934Z,7.07
2022-10-31T16:36:54.672Z,7.65
2022-10-31T16:39:21.952Z,7.55
2022-10-31T16:41:52.924Z,7.55
2022-10-31T16:44:24.226Z,7.22
2022-10-31T16:47:10.095Z,7.57
2022-10-31T16:49:37.958Z,7.80
2022-10-31T16:52:07.638Z,7.15
2022-10-31T16:54:35.073Z,7.72
2022-10-31T16:57:07.257Z,6.13
2022-10-31T16:59:35.209Z,6.15
2022-10-31T17:02:04.835Z,5.38
2022-10-31T17:04:32.127Z,5.38
2022-10-31T17:07:01.546Z,5.22
2022-10-31T17:09:29.139Z,4.78
2022-10-31T17:11:56.384Z,5.40
2022-10-31T17:14:26.463Z,5.05
2022-10-31T17:16:53.560Z,4.78
2022-10-31T17:19:20.776Z,4.80
2022-10-31T17:21:47.943Z,5.15
2022-10-31T17:24:15.938Z,5.07
2022-10-31T17:26:43.276Z,4.60
2022-10-31T17:29:10.493Z,4.73
2022-10-31T17:31:40.182Z,4.95
2022-10-31T17:34:08.658Z,5.10
2022-10-31T17:36:36.109Z,4.60
2022-10-31T17:39:05.570Z,5.05
2022-10-31T17:41:32.661Z,4.63
2022-10-31T17:44:00.223Z,4.90
2022-10-31T17:46:28.606Z,5.07
2022-10-31T17:48:55.890Z,4.97
2022-10-31T17:51:23.129Z,5.07
2022-10-31T17:53:50.326Z,5.78
2022-10-31T17:56:19.696Z,5.27
2022-10-31T17:58:46.833Z,5.30
2022-10-31T18:01:16.576Z,5.57
2022-10-31T18:03:44.272Z,5.60
2022-10-31T18:06:14.479Z,5.65
2022-10-31T18:08:41.711Z,5.50
2022-10-31T18:11:11.167Z,5.13
2022-10-31T18:13:39.002Z,4.70
2022-10-31T18:16:11.307Z,5.55
2022-10-31T18:18:38.514Z,5.22
2022-10-31T18:21:08.727Z,5.43
2022-10-31T18:23:36.060Z,5.18
2022-10-31T18:26:05.798Z,5.10
2022-10-31T18:28:33.519Z,5.23
2022-10-31T18:31:01.059Z,5.72
2022-10-31T18:33:28.508Z,5.18
2022-10-31T18:35:56.033Z,5.13
2022-10-31T18:38:23.628Z,5.20
2022-10-31T18:40:51.849Z,4.93
2022-10-31T18:43:18.944Z,4.80
2022-10-31T18:45:52.307Z,5.30
2022-10-31T18:48:22.326Z,5.10
2022-10-31T18:50:49.465Z,5.30
2022-10-31T18:53:16.627Z,5.77
2022-10-31T18:55:47.258Z,5.77
2022-10-31T18:58:19.718Z,5.17
2022-10-31T19:00:47.121Z,5.90
2022-10-31T19:03:15.302Z,5.40
2022-10-31T19:05:45.051Z,5.40
2022-10-31T19:08:12.217Z,5.75
2022-10-31T19:10:40.423Z,5.35
2022-10-31T19:13:07.880Z,5.70
2022-10-31T19:15:36.076Z,5.33
2022-10-31T19:18:04.513Z,4.95
2022-10-31T19:20:32.016Z,5.28
2022-10-31T19:22:59.512Z,5.27
2022-10-31T19:25:26.858Z,5.78
2022-10-31T19:27:53.981Z,6.28
2022-10-31T19:30:21.606Z,5.20
2022-10-31T19:32:48.727Z,5.05
2022-10-31T19:35:15.959Z,5.47
2022-10-31T19:37:43.594Z,5.53
2022-10-31T19:40:11.400Z,5.60
2022-10-31T19:42:38.517Z,5.53
2022-10-31T19:45:06.211Z,4.78
2022-10-31T19:47:33.869Z,5.10
2022-10-31T19:50:05.093Z,5.40
2022-10-31T19:52:35.591Z,5.18
2022-10-31T19:55:03.130Z,5.05
2022-10-31T19:57:56.598Z,4.97
2022-10-31T20:00:24.282Z,5.13
2022-10-31T20:02:51.423Z,5.33
2022-10-31T20:05:18.508Z,4.90
2022-10-31T20:07:45.661Z,4.95
2022-10-31T20:10:12.889Z,4.80
2022-10-31T20:12:40.028Z,4.80
2022-10-31T20:15:07.250Z,4.73
2022-10-31T20:17:34.389Z,5.10
2022-10-31T20:20:08.624Z,4.53
2022-10-31T20:22:36.702Z,4.10
2022-10-31T20:25:04.903Z,4.20
2022-10-31T20:27:32.035Z,5.00
2022-10-31T20:29:59.217Z,4.13
2022-10-31T20:32:26.375Z,4.00
2022-10-31T20:34:53.485Z,4.57
2022-10-31T20:37:20.565Z,4.50
2022-10-31T20:39:52.673Z,5.17
2022-10-31T20:42:23.858Z,5.20
2022-10-31T20:44:51.095Z,4.90
2022-10-31T20:47:20.632Z,4.07
2022-10-31T20:49:53.080Z,4.60
2022-10-31T20:52:20.287Z,4.60
2022-10-31T20:54:47.423Z,4.32
2022-10-31T20:57:14.551Z,4.90
2022-10-31T20:59:41.713Z,4.35
2022-10-31T21:02:10.226Z,3.97
2022-10-31T21:04:37.424Z,4.60
2022-10-31T21:07:04.983Z,4.63
2022-10-31T21:09:32.157Z,4.75
2022-10-31T21:12:01.808Z,4.88
2022-10-31T21:14:28.945Z,4.47
2022-10-31T21:16:56.301Z,4.85
2022-10-31T21:19:28.257Z,4.72
2022-10-31T21:21:55.432Z,4.88
2022-10-31T21:24:22.852Z,4.57
2022-10-31T21:26:51.968Z,4.18
2022-10-31T21:29:19.566Z,4.43
2022-10-31T21:31:47.688Z,4.38
2022-10-31T21:34:15.237Z,4.15
2022-10-31T21:36:42.429Z,4.57
2022-10-31T21:39:10.334Z,4.73
2022-10-31T21:41:40.029Z,4.77
2022-10-31T21:44:07.197Z,4.82
2022-10-31T21:46:38.580Z,4.43
2022-10-31T21:49:05.958Z,3.95
2022-10-31T21:51:35.331Z,4.53
2022-10-31T21:54:25.703Z,4.43
2022-10-31T21:56:53.293Z,4.13
2022-10-31T21:59:20.762Z,4.57
2022-10-31T22:01:48.065Z,4.78
2022-10-31T22:04:15.455Z,4.40
2022-10-31T22:06:45.709Z,4.85
2022-10-31T22:09:14.592Z,5.07
2022-10-31T22:11:42.441Z,4.65
2022-10-31T22:14:13.826Z,4.75
2022-10-31T22:16:41.650Z,4.45
2022-10-31T22:19:11.587Z,4.68
2022-10-31T22:21:44.431Z,4.80
2022-10-31T22:24:12.312Z,4.15
2022-10-31T22:26:40.175Z,4.57
2022-10-31T22:29:12.066Z,4.50
2022-10-31T22:31:41.733Z,5.63
2022-10-31T22:34:09.433Z,4.57
2022-10-31T22:36:37.840Z,4.60
2022-10-31T22:39:05.549Z,3.95
2022-10-31T22:41:34.710Z,4.10
2022-10-31T22:44:03.034Z,4.32
2022-10-31T22:46:33.123Z,4.00
2022-10-31T22:49:13.923Z,4.28
2022-10-31T22:51:43.051Z,4.00
2022-10-31T22:54:16.682Z,4.05
2022-10-31T22:56:44.332Z,4.00
2022-10-31T22:59:15.970Z,4.53
2022-10-31T23:01:45.817Z,3.80
2022-10-31T23:04:14.383Z,4.03
2022-10-31T23:06:41.673Z,4.13
2022-10-31T23:09:09.252Z,4.05
2022-10-31T23:11:39.207Z,4.28
2022-10-31T23:14:14.528Z,4.07
2022-10-31T23:16:55.666Z,3.50
2022-10-31T23:19:27.425Z,3.80
2022-10-31T23:22:02.385Z,3.80
2022-10-31T23:24:39.521Z,3.60
2022-10-31T23:27:24.270Z,3.83
2022-10-31T23:29:52.416Z,3.08
2022-10-31T23:32:28.430Z,3.53
2022-10-31T23:34:58.002Z,3.25
2022-10-31T23:37:29.749Z,3.30
2022-10-31T23:39:56.880Z,3.10
2022-10-31T23:42:24.819Z,3.20
2022-10-31T23:44:52.361Z,3.22
2022-10-31T23:47:20.105Z,3.50
2022-10-31T23:49:48.207Z,3.42
2022-10-31T23:52:15.914Z,3.80
2022-10-31T23:54:43.276Z,4.03
2022-10-31T23:57:12.262Z,3.63
2022-10-31T23:59:41.881Z,3.33
